Pagrindinis puslapis
METAR-TAF:

METAR-TAF

Oro uostai :

San Chosė, Kosta Rika

platuma: 09-57N, ilguma: 084-09W, Aukštis: 994 m

Dabartinis oras

Ataskaita buvo paskelbta 1 valandą ir 4 minutes, ne 20:00 UTC
Vėjas 15 kt iš Rytų/Šiaurės Rytų
Temperatūra 26°C
Drėgmė 48%
Slėgis 1017 hPa
Matomumas 10 km arba daugiau
Mažai debesys ne aukštis 4500 ft

METAR: MRPV 212000Z 06015KT 9999 FEW045 26/14 A3004 WS R09 NOSIG

Laikas: 15:04 (21:04 UTC)

Prognozė

Ataskaita buvo paskelbta 4 valandos ir 4 minutes, ne 17:00 UTC
Prognozė galioja nuo 21 metu 18 UTC su 22 metu 18 UTC
Vėjas 19 kt iš Rytų/Šiaurės Rytų
Matomumas 10 km arba daugiau
Mažai debesys ne aukštis 3000 ft
Laikinai
nuo 22 metu 06 UTC su 22 metu 18 UTC
Vėjas 20 kt iš Rytų/Šiaurės Rytų su gūsio iki 30 kt

TAF: MRPV 211700Z 2118/2218 07019KT 9999 FEW030 TX25/2119Z TN18/2210Z TEMPO 2206/2218 07020G30KT

Orai ataskaitas ir orų prognozės (METAR, TAF).

turimą stotys yra geltonos ir raudonos taškus žemėlapyje.

Perkelti pele per norėdami pamatyti stoties vardą.

Tada spustelėkite, norėdami matyti oro stebėjimo ir prognozės.

Norėdami pakeisti žemėlapį: spustelėkite ant žalios mygtukų su juodo kryžiaus žemyn,; žalią mygtuką su brūkšneliu, jei norite nutolinti; arba žalių rodyklių gretimoms žemėlapius.


METAR-TAF: